sensor_id;sensor_type;location;lat;lon;timestamp;temperature;humidity
43884;DHT22;29544;52.018;5.810;2023-06-22T00:01:08;24.70;56.10
43884;DHT22;29544;52.018;5.810;2023-06-22T00:03:34;24.70;56.10
43884;DHT22;29544;52.018;5.810;2023-06-22T00:05:59;24.70;56.10
43884;DHT22;29544;52.018;5.810;2023-06-22T00:08:25;24.70;56.10
43884;DHT22;29544;52.018;5.810;2023-06-22T00:10:50;24.70;56.10
43884;DHT22;29544;52.018;5.810;2023-06-22T00:13:16;24.70;56.10
43884;DHT22;29544;52.018;5.810;2023-06-22T00:15:42;24.70;56.10
43884;DHT22;29544;52.018;5.810;2023-06-22T00:18:08;24.60;56.10
43884;DHT22;29544;52.018;5.810;2023-06-22T00:20:34;24.60;56.10
43884;DHT22;29544;52.018;5.810;2023-06-22T00:23:02;24.60;56.10
43884;DHT22;29544;52.018;5.810;2023-06-22T00:25:33;24.60;56.10
43884;DHT22;29544;52.018;5.810;2023-06-22T00:27:58;24.60;56.10
43884;DHT22;29544;52.018;5.810;2023-06-22T00:30:24;24.60;56.10
43884;DHT22;29544;52.018;5.810;2023-06-22T00:32:49;24.60;56.70
43884;DHT22;29544;52.018;5.810;2023-06-22T00:35:15;24.60;56.10
43884;DHT22;29544;52.018;5.810;2023-06-22T00:37:40;24.50;56.10
43884;DHT22;29544;52.018;5.810;2023-06-22T00:40:07;24.50;56.10
43884;DHT22;29544;52.018;5.810;2023-06-22T00:42:37;24.50;56.10
43884;DHT22;29544;52.018;5.810;2023-06-22T00:45:03;24.50;56.10
43884;DHT22;29544;52.018;5.810;2023-06-22T00:47:29;24.50;56.10
43884;DHT22;29544;52.018;5.810;2023-06-22T00:49:54;24.50;56.10
43884;DHT22;29544;52.018;5.810;2023-06-22T00:52:20;24.50;56.20
43884;DHT22;29544;52.018;5.810;2023-06-22T00:54:47;24.40;56.10
43884;DHT22;29544;52.018;5.810;2023-06-22T00:57:14;24.40;56.10
43884;DHT22;29544;52.018;5.810;2023-06-22T00:59:43;24.50;56.10
43884;DHT22;29544;52.018;5.810;2023-06-22T01:02:09;24.40;56.00
43884;DHT22;29544;52.018;5.810;2023-06-22T01:04:35;24.40;56.00
43884;DHT22;29544;52.018;5.810;2023-06-22T01:07:03;24.40;56.10
43884;DHT22;29544;52.018;5.810;2023-06-22T01:09:32;24.40;56.00
43884;DHT22;29544;52.018;5.810;2023-06-22T01:12:04;24.30;56.00
43884;DHT22;29544;52.018;5.810;2023-06-22T01:16:59;24.30;56.00
43884;DHT22;29544;52.018;5.810;2023-06-22T01:19:37;24.30;56.10
43884;DHT22;29544;52.018;5.810;2023-06-22T01:22:05;24.30;56.00
43884;DHT22;29544;52.018;5.810;2023-06-22T01:29:23;24.30;55.90
43884;DHT22;29544;52.018;5.810;2023-06-22T01:31:49;24.30;56.00
43884;DHT22;29544;52.018;5.810;2023-06-22T01:34:15;24.30;56.50
43884;DHT22;29544;52.018;5.810;2023-06-22T01:36:41;24.20;55.90
43884;DHT22;29544;52.018;5.810;2023-06-22T01:39:07;24.20;55.80
43884;DHT22;29544;52.018;5.810;2023-06-22T01:41:34;24.20;55.80
43884;DHT22;29544;52.018;5.810;2023-06-22T01:44:00;24.20;55.80
43884;DHT22;29544;52.018;5.810;2023-06-22T01:46:26;24.20;55.80
43884;DHT22;29544;52.018;5.810;2023-06-22T01:48:51;24.20;55.90
43884;DHT22;29544;52.018;5.810;2023-06-22T01:51:17;24.20;55.80
43884;DHT22;29544;52.018;5.810;2023-06-22T01:53:43;24.20;55.80
43884;DHT22;29544;52.018;5.810;2023-06-22T01:56:08;24.10;55.70
43884;DHT22;29544;52.018;5.810;2023-06-22T01:58:34;24.10;55.70
43884;DHT22;29544;52.018;5.810;2023-06-22T02:01:11;24.10;55.70
43884;DHT22;29544;52.018;5.810;2023-06-22T02:03:39;24.10;55.70
43884;DHT22;29544;52.018;5.810;2023-06-22T02:06:08;24.10;56.30
43884;DHT22;29544;52.018;5.810;2023-06-22T02:08:41;24.10;56.30
43884;DHT22;29544;52.018;5.810;2023-06-22T02:11:09;24.00;55.60
43884;DHT22;29544;52.018;5.810;2023-06-22T02:13:36;24.00;55.60
43884;DHT22;29544;52.018;5.810;2023-06-22T02:16:01;24.10;55.70
43884;DHT22;29544;52.018;5.810;2023-06-22T02:18:27;24.00;55.60
43884;DHT22;29544;52.018;5.810;2023-06-22T02:20:53;24.00;55.50
43884;DHT22;29544;52.018;5.810;2023-06-22T02:23:18;24.00;55.50
43884;DHT22;29544;52.018;5.810;2023-06-22T02:25:44;24.00;55.50
43884;DHT22;29544;52.018;5.810;2023-06-22T02:28:09;24.00;55.50
43884;DHT22;29544;52.018;5.810;2023-06-22T02:30:35;23.90;55.40
43884;DHT22;29544;52.018;5.810;2023-06-22T02:33:00;24.00;55.50
43884;DHT22;29544;52.018;5.810;2023-06-22T02:35:26;23.90;55.50
43884;DHT22;29544;52.018;5.810;2023-06-22T02:37:52;23.90;55.50
43884;DHT22;29544;52.018;5.810;2023-06-22T02:40:17;23.90;55.40
43884;DHT22;29544;52.018;5.810;2023-06-22T02:42:43;23.90;55.50
43884;DHT22;29544;52.018;5.810;2023-06-22T02:45:08;23.90;55.40
43884;DHT22;29544;52.018;5.810;2023-06-22T02:47:34;23.90;55.40
43884;DHT22;29544;52.018;5.810;2023-06-22T02:49:59;23.80;55.40
43884;DHT22;29544;52.018;5.810;2023-06-22T02:52:25;23.80;55.30
43884;DHT22;29544;52.018;5.810;2023-06-22T02:54:51;23.80;55.30
43884;DHT22;29544;52.018;5.810;2023-06-22T02:57:17;23.80;55.30
43884;DHT22;29544;52.018;5.810;2023-06-22T02:59:42;23.80;55.30
43884;DHT22;29544;52.018;5.810;2023-06-22T03:02:08;23.70;55.20
43884;DHT22;29544;52.018;5.810;2023-06-22T03:04:34;23.80;55.30
43884;DHT22;29544;52.018;5.810;2023-06-22T03:06:59;23.70;55.20
43884;DHT22;29544;52.018;5.810;2023-06-22T03:09:27;23.70;55.20
43884;DHT22;29544;52.018;5.810;2023-06-22T03:11:53;23.70;55.10
43884;DHT22;29544;52.018;5.810;2023-06-22T03:14:19;23.70;55.20
43884;DHT22;29544;52.018;5.810;2023-06-22T03:16:44;23.70;55.20
43884;DHT22;29544;52.018;5.810;2023-06-22T03:19:09;23.70;55.20
43884;DHT22;29544;52.018;5.810;2023-06-22T03:21:36;23.70;55.20
43884;DHT22;29544;52.018;5.810;2023-06-22T03:24:04;23.60;55.10
43884;DHT22;29544;52.018;5.810;2023-06-22T03:26:29;23.60;55.10
43884;DHT22;29544;52.018;5.810;2023-06-22T03:28:55;23.60;55.00
43884;DHT22;29544;52.018;5.810;2023-06-22T03:31:20;23.60;55.00
43884;DHT22;29544;52.018;5.810;2023-06-22T03:33:47;23.60;55.00
43884;DHT22;29544;52.018;5.810;2023-06-22T03:36:13;23.60;55.00
43884;DHT22;29544;52.018;5.810;2023-06-22T03:38:39;23.60;55.00
43884;DHT22;29544;52.018;5.810;2023-06-22T03:41:04;23.50;54.90
43884;DHT22;29544;52.018;5.810;2023-06-22T03:43:30;23.50;54.90
43884;DHT22;29544;52.018;5.810;2023-06-22T03:45:55;23.50;54.90
43884;DHT22;29544;52.018;5.810;2023-06-22T03:48:20;23.50;55.00
43884;DHT22;29544;52.018;5.810;2023-06-22T03:50:46;23.50;55.00
43884;DHT22;29544;52.018;5.810;2023-06-22T03:53:11;23.50;55.00
43884;DHT22;29544;52.018;5.810;2023-06-22T03:55:40;23.50;55.00
43884;DHT22;29544;52.018;5.810;2023-06-22T03:58:05;23.50;55.00
43884;DHT22;29544;52.018;5.810;2023-06-22T04:00:33;23.50;55.00
43884;DHT22;29544;52.018;5.810;2023-06-22T04:02:59;23.50;55.10
43884;DHT22;29544;52.018;5.810;2023-06-22T04:05:24;23.50;55.00
43884;DHT22;29544;52.018;5.810;2023-06-22T04:07:50;23.40;55.00
43884;DHT22;29544;52.018;5.810;2023-06-22T04:10:15;23.40;55.10
43884;DHT22;29544;52.018;5.810;2023-06-22T04:12:41;23.40;55.00
43884;DHT22;29544;52.018;5.810;2023-06-22T04:15:06;23.40;55.00
43884;DHT22;29544;52.018;5.810;2023-06-22T04:17:32;23.40;55.10
43884;DHT22;29544;52.018;5.810;2023-06-22T04:19:57;23.40;55.00
43884;DHT22;29544;52.018;5.810;2023-06-22T04:22:22;23.40;55.00
43884;DHT22;29544;52.018;5.810;2023-06-22T04:24:48;23.30;55.00
43884;DHT22;29544;52.018;5.810;2023-06-22T04:27:13;23.30;55.10
43884;DHT22;29544;52.018;5.810;2023-06-22T04:29:39;23.30;55.10
43884;DHT22;29544;52.018;5.810;2023-06-22T04:32:14;23.30;55.20
43884;DHT22;29544;52.018;5.810;2023-06-22T04:34:40;23.30;55.30
43884;DHT22;29544;52.018;5.810;2023-06-22T04:37:05;23.30;55.20
43884;DHT22;29544;52.018;5.810;2023-06-22T04:39:31;23.30;55.30
43884;DHT22;29544;52.018;5.810;2023-06-22T04:41:57;23.30;55.30
43884;DHT22;29544;52.018;5.810;2023-06-22T04:44:25;23.30;55.40
43884;DHT22;29544;52.018;5.810;2023-06-22T04:46:51;23.30;55.50
43884;DHT22;29544;52.018;5.810;2023-06-22T04:49:25;23.30;55.50
43884;DHT22;29544;52.018;5.810;2023-06-22T04:52:05;23.30;55.50
43884;DHT22;29544;52.018;5.810;2023-06-22T04:54:31;23.30;55.60
43884;DHT22;29544;52.018;5.810;2023-06-22T04:57:00;23.20;55.60
43884;DHT22;29544;52.018;5.810;2023-06-22T04:59:26;23.20;55.70
43884;DHT22;29544;52.018;5.810;2023-06-22T05:01:58;23.30;55.80
43884;DHT22;29544;52.018;5.810;2023-06-22T05:04:24;23.30;55.90
43884;DHT22;29544;52.018;5.810;2023-06-22T05:06:50;23.30;55.90
43884;DHT22;29544;52.018;5.810;2023-06-22T05:09:16;23.30;55.90
43884;DHT22;29544;52.018;5.810;2023-06-22T05:11:42;23.20;55.90
43884;DHT22;29544;52.018;5.810;2023-06-22T05:14:08;23.30;56.00
43884;DHT22;29544;52.018;5.810;2023-06-22T05:16:33;23.30;56.00
43884;DHT22;29544;52.018;5.810;2023-06-22T05:18:59;23.20;55.90
43884;DHT22;29544;52.018;5.810;2023-06-22T05:21:25;23.30;56.00
43884;DHT22;29544;52.018;5.810;2023-06-22T05:23:51;23.30;56.10
43884;DHT22;29544;52.018;5.810;2023-06-22T05:26:17;23.30;56.10
43884;DHT22;29544;52.018;5.810;2023-06-22T05:28:43;23.30;56.20
43884;DHT22;29544;52.018;5.810;2023-06-22T05:31:14;23.30;56.20
43884;DHT22;29544;52.018;5.810;2023-06-22T05:33:40;23.30;56.40
43884;DHT22;29544;52.018;5.810;2023-06-22T05:36:06;23.30;56.40
43884;DHT22;29544;52.018;5.810;2023-06-22T05:38:32;23.30;56.40
43884;DHT22;29544;52.018;5.810;2023-06-22T05:40:57;23.30;56.60
43884;DHT22;29544;52.018;5.810;2023-06-22T05:43:22;23.30;56.60
43884;DHT22;29544;52.018;5.810;2023-06-22T05:45:48;23.30;56.60
43884;DHT22;29544;52.018;5.810;2023-06-22T05:48:13;23.30;56.80
43884;DHT22;29544;52.018;5.810;2023-06-22T05:50:39;23.30;56.80
43884;DHT22;29544;52.018;5.810;2023-06-22T05:53:04;23.30;56.90
43884;DHT22;29544;52.018;5.810;2023-06-22T05:55:32;23.30;56.90
43884;DHT22;29544;52.018;5.810;2023-06-22T05:57:57;23.30;57.00
43884;DHT22;29544;52.018;5.810;2023-06-22T06:00:23;23.30;57.20
43884;DHT22;29544;52.018;5.810;2023-06-22T06:02:49;23.30;57.20
43884;DHT22;29544;52.018;5.810;2023-06-22T06:05:15;23.30;57.30
43884;DHT22;29544;52.018;5.810;2023-06-22T06:07:41;23.30;57.30
43884;DHT22;29544;52.018;5.810;2023-06-22T06:10:07;23.30;57.40
43884;DHT22;29544;52.018;5.810;2023-06-22T06:12:33;23.30;57.30
43884;DHT22;29544;52.018;5.810;2023-06-22T06:14:58;23.30;57.50
43884;DHT22;29544;52.018;5.810;2023-06-22T06:17:24;23.30;57.60
43884;DHT22;29544;52.018;5.810;2023-06-22T06:19:49;23.30;57.50
43884;DHT22;29544;52.018;5.810;2023-06-22T06:22:14;23.30;57.90
43884;DHT22;29544;52.018;5.810;2023-06-22T06:24:40;23.30;57.80
43884;DHT22;29544;52.018;5.810;2023-06-22T06:27:05;23.40;58.00
43884;DHT22;29544;52.018;5.810;2023-06-22T06:29:34;23.30;58.30
43884;DHT22;29544;52.018;5.810;2023-06-22T06:31:59;23.40;58.20
43884;DHT22;29544;52.018;5.810;2023-06-22T06:34:25;23.40;58.10
43884;DHT22;29544;52.018;5.810;2023-06-22T06:36:50;23.40;58.20
43884;DHT22;29544;52.018;5.810;2023-06-22T06:39:15;23.40;58.40
43884;DHT22;29544;52.018;5.810;2023-06-22T06:41:41;23.30;58.30
43884;DHT22;29544;52.018;5.810;2023-06-22T06:44:07;23.40;58.40
43884;DHT22;29544;52.018;5.810;2023-06-22T06:46:32;23.40;58.60
43884;DHT22;29544;52.018;5.810;2023-06-22T06:48:58;23.40;58.80
43884;DHT22;29544;52.018;5.810;2023-06-22T06:51:23;23.40;58.90
43884;DHT22;29544;52.018;5.810;2023-06-22T06:53:49;23.40;59.50
43884;DHT22;29544;52.018;5.810;2023-06-22T06:56:14;23.40;59.10
43884;DHT22;29544;52.018;5.810;2023-06-22T06:58:43;23.40;59.00
43884;DHT22;29544;52.018;5.810;2023-06-22T07:01:11;23.40;59.20
43884;DHT22;29544;52.018;5.810;2023-06-22T07:03:36;23.40;59.20
43884;DHT22;29544;52.018;5.810;2023-06-22T07:06:01;23.40;59.30
43884;DHT22;29544;52.018;5.810;2023-06-22T07:08:27;23.40;59.40
43884;DHT22;29544;52.018;5.810;2023-06-22T07:10:52;23.40;59.40
43884;DHT22;29544;52.018;5.810;2023-06-22T07:13:18;23.40;59.60
43884;DHT22;29544;52.018;5.810;2023-06-22T07:15:43;23.40;59.60
43884;DHT22;29544;52.018;5.810;2023-06-22T07:18:09;23.40;60.00
43884;DHT22;29544;52.018;5.810;2023-06-22T07:20:34;23.40;59.80
43884;DHT22;29544;52.018;5.810;2023-06-22T07:23:00;23.40;59.60
43884;DHT22;29544;52.018;5.810;2023-06-22T07:25:25;23.50;59.80
43884;DHT22;29544;52.018;5.810;2023-06-22T07:28:04;23.40;59.90
43884;DHT22;29544;52.018;5.810;2023-06-22T07:30:30;23.50;59.90
43884;DHT22;29544;52.018;5.810;2023-06-22T07:32:56;23.50;60.00
43884;DHT22;29544;52.018;5.810;2023-06-22T07:35:22;23.50;59.90
43884;DHT22;29544;52.018;5.810;2023-06-22T07:37:47;23.50;59.90
43884;DHT22;29544;52.018;5.810;2023-06-22T07:40:12;23.50;60.00
43884;DHT22;29544;52.018;5.810;2023-06-22T07:42:38;23.50;60.10
43884;DHT22;29544;52.018;5.810;2023-06-22T07:45:04;23.50;60.60
43884;DHT22;29544;52.018;5.810;2023-06-22T07:47:29;23.50;60.50
43884;DHT22;29544;52.018;5.810;2023-06-22T07:49:55;23.50;60.40
43884;DHT22;29544;52.018;5.810;2023-06-22T07:52:23;23.50;60.20
43884;DHT22;29544;52.018;5.810;2023-06-22T07:54:49;23.50;60.40
43884;DHT22;29544;52.018;5.810;2023-06-22T07:57:14;23.50;60.30
43884;DHT22;29544;52.018;5.810;2023-06-22T07:59:39;23.50;60.30
43884;DHT22;29544;52.018;5.810;2023-06-22T08:02:05;23.50;60.30
43884;DHT22;29544;52.018;5.810;2023-06-22T08:04:30;23.50;60.20
43884;DHT22;29544;52.018;5.810;2023-06-22T08:06:59;23.50;60.30
43884;DHT22;29544;52.018;5.810;2023-06-22T08:09:24;23.50;60.30
43884;DHT22;29544;52.018;5.810;2023-06-22T08:11:50;23.60;60.40
43884;DHT22;29544;52.018;5.810;2023-06-22T08:14:15;23.50;60.30
43884;DHT22;29544;52.018;5.810;2023-06-22T08:16:41;23.60;60.50
43884;DHT22;29544;52.018;5.810;2023-06-22T08:19:06;23.60;60.40
43884;DHT22;29544;52.018;5.810;2023-06-22T08:21:32;23.60;60.40
43884;DHT22;29544;52.018;5.810;2023-06-22T08:23:57;23.60;60.30
43884;DHT22;29544;52.018;5.810;2023-06-22T08:26:23;23.60;60.40
43884;DHT22;29544;52.018;5.810;2023-06-22T08:28:48;23.60;60.40
43884;DHT22;29544;52.018;5.810;2023-06-22T08:31:14;23.60;60.40
43884;DHT22;29544;52.018;5.810;2023-06-22T08:33:39;23.60;60.50
43884;DHT22;29544;52.018;5.810;2023-06-22T08:36:05;23.60;60.40
43884;DHT22;29544;52.018;5.810;2023-06-22T08:38:31;23.60;60.50
43884;DHT22;29544;52.018;5.810;2023-06-22T08:40:57;23.60;60.60
43884;DHT22;29544;52.018;5.810;2023-06-22T08:43:22;23.60;60.60
43884;DHT22;29544;52.018;5.810;2023-06-22T08:45:48;23.60;60.60
43884;DHT22;29544;52.018;5.810;2023-06-22T08:48:13;23.60;60.60
43884;DHT22;29544;52.018;5.810;2023-06-22T08:50:39;23.60;60.70
43884;DHT22;29544;52.018;5.810;2023-06-22T08:53:05;23.70;61.00
43884;DHT22;29544;52.018;5.810;2023-06-22T08:55:31;23.70;61.00
43884;DHT22;29544;52.018;5.810;2023-06-22T08:57:57;23.70;61.00
43884;DHT22;29544;52.018;5.810;2023-06-22T09:00:22;23.70;61.00
43884;DHT22;29544;52.018;5.810;2023-06-22T09:02:47;23.70;61.00
43884;DHT22;29544;52.018;5.810;2023-06-22T09:05:13;23.70;61.00
43884;DHT22;29544;52.018;5.810;2023-06-22T09:07:39;23.70;61.30
43884;DHT22;29544;52.018;5.810;2023-06-22T09:10:05;23.70;61.20
43884;DHT22;29544;52.018;5.810;2023-06-22T09:12:31;23.70;61.10
43884;DHT22;29544;52.018;5.810;2023-06-22T09:14:58;23.70;61.10
43884;DHT22;29544;52.018;5.810;2023-06-22T09:17:25;23.70;61.00
43884;DHT22;29544;52.018;5.810;2023-06-22T09:19:50;23.70;60.90
43884;DHT22;29544;52.018;5.810;2023-06-22T09:22:15;23.70;61.00
43884;DHT22;29544;52.018;5.810;2023-06-22T09:24:41;23.70;60.90
43884;DHT22;29544;52.018;5.810;2023-06-22T09:27:06;23.70;60.80
43884;DHT22;29544;52.018;5.810;2023-06-22T09:29:32;23.70;60.70
43884;DHT22;29544;52.018;5.810;2023-06-22T09:31:59;23.70;60.70
43884;DHT22;29544;52.018;5.810;2023-06-22T09:34:25;23.80;60.70
43884;DHT22;29544;52.018;5.810;2023-06-22T09:36:50;23.80;60.80
43884;DHT22;29544;52.018;5.810;2023-06-22T09:39:17;23.80;60.70
43884;DHT22;29544;52.018;5.810;2023-06-22T09:41:43;23.80;60.70
43884;DHT22;29544;52.018;5.810;2023-06-22T09:44:08;23.80;60.70
43884;DHT22;29544;52.018;5.810;2023-06-22T09:46:34;23.80;60.70
43884;DHT22;29544;52.018;5.810;2023-06-22T09:48:59;23.80;60.70
43884;DHT22;29544;52.018;5.810;2023-06-22T09:51:24;23.80;60.70
43884;DHT22;29544;52.018;5.810;2023-06-22T09:53:50;23.80;60.80
43884;DHT22;29544;52.018;5.810;2023-06-22T09:56:16;23.80;60.80
43884;DHT22;29544;52.018;5.810;2023-06-22T09:58:42;23.80;60.70
43884;DHT22;29544;52.018;5.810;2023-06-22T10:01:07;23.80;60.80
43884;DHT22;29544;52.018;5.810;2023-06-22T10:03:33;23.80;60.60
43884;DHT22;29544;52.018;5.810;2023-06-22T10:05:58;23.80;60.60
43884;DHT22;29544;52.018;5.810;2023-06-22T10:08:24;23.80;60.50
43884;DHT22;29544;52.018;5.810;2023-06-22T10:10:49;23.90;60.50
43884;DHT22;29544;52.018;5.810;2023-06-22T10:13:15;23.90;60.60
43884;DHT22;29544;52.018;5.810;2023-06-22T10:15:40;23.90;60.70
43884;DHT22;29544;52.018;5.810;2023-06-22T10:18:05;23.90;60.50
43884;DHT22;29544;52.018;5.810;2023-06-22T10:20:31;23.90;60.50
43884;DHT22;29544;52.018;5.810;2023-06-22T10:22:56;23.90;60.50
43884;DHT22;29544;52.018;5.810;2023-06-22T10:25:22;23.90;60.50
43884;DHT22;29544;52.018;5.810;2023-06-22T10:27:48;23.90;60.50
43884;DHT22;29544;52.018;5.810;2023-06-22T10:30:13;23.90;60.40
43884;DHT22;29544;52.018;5.810;2023-06-22T10:32:39;23.90;60.50
43884;DHT22;29544;52.018;5.810;2023-06-22T10:35:05;23.90;60.40
43884;DHT22;29544;52.018;5.810;2023-06-22T10:37:31;23.90;60.50
43884;DHT22;29544;52.018;5.810;2023-06-22T10:39:57;23.90;60.40
43884;DHT22;29544;52.018;5.810;2023-06-22T10:42:22;23.90;60.40
43884;DHT22;29544;52.018;5.810;2023-06-22T10:44:48;23.90;60.30
43884;DHT22;29544;52.018;5.810;2023-06-22T10:47:13;23.90;60.20
43884;DHT22;29544;52.018;5.810;2023-06-22T10:49:39;23.90;60.30
43884;DHT22;29544;52.018;5.810;2023-06-22T10:52:06;23.90;60.20
43884;DHT22;29544;52.018;5.810;2023-06-22T10:54:32;23.90;60.30
43884;DHT22;29544;52.018;5.810;2023-06-22T10:56:58;23.90;60.30
43884;DHT22;29544;52.018;5.810;2023-06-22T10:59:24;23.90;60.30
43884;DHT22;29544;52.018;5.810;2023-06-22T11:01:51;24.00;60.30
43884;DHT22;29544;52.018;5.810;2023-06-22T11:04:16;24.00;60.50
43884;DHT22;29544;52.018;5.810;2023-06-22T11:06:43;24.00;60.60
43884;DHT22;29544;52.018;5.810;2023-06-22T11:09:08;24.00;60.50
43884;DHT22;29544;52.018;5.810;2023-06-22T11:11:34;24.00;60.60
43884;DHT22;29544;52.018;5.810;2023-06-22T11:13:59;24.00;60.70
43884;DHT22;29544;52.018;5.810;2023-06-22T11:16:25;24.00;60.60
43884;DHT22;29544;52.018;5.810;2023-06-22T11:18:50;24.00;60.50
43884;DHT22;29544;52.018;5.810;2023-06-22T11:21:15;24.00;60.70
43884;DHT22;29544;52.018;5.810;2023-06-22T11:23:41;24.00;60.80
43884;DHT22;29544;52.018;5.810;2023-06-22T11:26:07;24.00;61.10
43884;DHT22;29544;52.018;5.810;2023-06-22T11:28:32;24.00;60.90
43884;DHT22;29544;52.018;5.810;2023-06-22T11:30:58;24.00;61.00
43884;DHT22;29544;52.018;5.810;2023-06-22T11:33:24;24.00;60.80
43884;DHT22;29544;52.018;5.810;2023-06-22T11:35:49;24.00;61.00
43884;DHT22;29544;52.018;5.810;2023-06-22T11:38:15;24.00;60.80
43884;DHT22;29544;52.018;5.810;2023-06-22T11:40:40;24.10;60.80
43884;DHT22;29544;52.018;5.810;2023-06-22T11:43:05;24.00;60.70
43884;DHT22;29544;52.018;5.810;2023-06-22T11:45:31;24.00;60.70
43884;DHT22;29544;52.018;5.810;2023-06-22T11:47:56;24.10;60.70
43884;DHT22;29544;52.018;5.810;2023-06-22T11:50:22;24.10;60.60
43884;DHT22;29544;52.018;5.810;2023-06-22T11:52:47;24.00;60.50
43884;DHT22;29544;52.018;5.810;2023-06-22T11:55:13;24.00;60.50
43884;DHT22;29544;52.018;5.810;2023-06-22T11:57:39;24.00;60.40
43884;DHT22;29544;52.018;5.810;2023-06-22T12:00:16;24.10;60.50
43884;DHT22;29544;52.018;5.810;2023-06-22T12:02:43;24.00;60.50
43884;DHT22;29544;52.018;5.810;2023-06-22T12:05:08;24.00;60.40
43884;DHT22;29544;52.018;5.810;2023-06-22T12:07:34;24.00;60.50
43884;DHT22;29544;52.018;5.810;2023-06-22T12:09:59;24.00;60.40
43884;DHT22;29544;52.018;5.810;2023-06-22T12:12:24;24.00;60.70
43884;DHT22;29544;52.018;5.810;2023-06-22T12:14:50;24.10;60.90
43884;DHT22;29544;52.018;5.810;2023-06-22T12:17:15;24.10;60.90
43884;DHT22;29544;52.018;5.810;2023-06-22T12:19:41;24.10;61.10
43884;DHT22;29544;52.018;5.810;2023-06-22T12:22:06;24.10;61.30
43884;DHT22;29544;52.018;5.810;2023-06-22T12:24:32;24.10;61.40
43884;DHT22;29544;52.018;5.810;2023-06-22T12:26:57;24.10;61.60
43884;DHT22;29544;52.018;5.810;2023-06-22T12:29:22;24.10;61.70
43884;DHT22;29544;52.018;5.810;2023-06-22T12:31:48;24.10;61.80
43884;DHT22;29544;52.018;5.810;2023-06-22T12:34:13;24.10;62.20
43884;DHT22;29544;52.018;5.810;2023-06-22T12:36:39;24.10;62.30
43884;DHT22;29544;52.018;5.810;2023-06-22T12:39:04;24.10;62.30
43884;DHT22;29544;52.018;5.810;2023-06-22T12:41:30;24.10;62.40
43884;DHT22;29544;52.018;5.810;2023-06-22T12:43:55;24.10;62.60
43884;DHT22;29544;52.018;5.810;2023-06-22T12:46:20;24.10;62.90
43884;DHT22;29544;52.018;5.810;2023-06-22T12:48:46;24.10;62.90
43884;DHT22;29544;52.018;5.810;2023-06-22T12:51:11;24.10;63.10
43884;DHT22;29544;52.018;5.810;2023-06-22T12:53:37;24.10;63.70
43884;DHT22;29544;52.018;5.810;2023-06-22T12:56:02;24.10;63.70
43884;DHT22;29544;52.018;5.810;2023-06-22T12:58:27;24.10;63.50
43884;DHT22;29544;52.018;5.810;2023-06-22T13:00:53;24.10;63.50
43884;DHT22;29544;52.018;5.810;2023-06-22T13:03:18;24.10;64.00
43884;DHT22;29544;52.018;5.810;2023-06-22T13:05:44;24.10;63.90
43884;DHT22;29544;52.018;5.810;2023-06-22T13:08:10;24.10;64.10
43884;DHT22;29544;52.018;5.810;2023-06-22T13:10:36;24.10;64.00
43884;DHT22;29544;52.018;5.810;2023-06-22T13:13:01;24.10;63.90
43884;DHT22;29544;52.018;5.810;2023-06-22T13:15:27;24.10;64.10
43884;DHT22;29544;52.018;5.810;2023-06-22T13:17:53;24.10;63.70
43884;DHT22;29544;52.018;5.810;2023-06-22T13:20:19;24.10;63.60
43884;DHT22;29544;52.018;5.810;2023-06-22T13:22:44;24.10;64.10
43884;DHT22;29544;52.018;5.810;2023-06-22T13:25:10;24.10;64.30
43884;DHT22;29544;52.018;5.810;2023-06-22T13:27:40;24.10;64.50
43884;DHT22;29544;52.018;5.810;2023-06-22T13:30:06;24.20;64.50
43884;DHT22;29544;52.018;5.810;2023-06-22T13:32:31;24.20;64.80
43884;DHT22;29544;52.018;5.810;2023-06-22T13:34:57;24.20;65.10
43884;DHT22;29544;52.018;5.810;2023-06-22T13:37:22;24.10;65.10
43884;DHT22;29544;52.018;5.810;2023-06-22T13:39:48;24.10;65.30
43884;DHT22;29544;52.018;5.810;2023-06-22T13:42:13;24.20;65.70
43884;DHT22;29544;52.018;5.810;2023-06-22T13:44:39;24.20;65.70
43884;DHT22;29544;52.018;5.810;2023-06-22T13:47:04;24.20;65.10
43884;DHT22;29544;52.018;5.810;2023-06-22T13:49:30;24.10;64.90
43884;DHT22;29544;52.018;5.810;2023-06-22T13:51:55;24.20;65.00
43884;DHT22;29544;52.018;5.810;2023-06-22T13:54:21;24.10;65.70
43884;DHT22;29544;52.018;5.810;2023-06-22T13:56:46;24.20;65.60
43884;DHT22;29544;52.018;5.810;2023-06-22T13:59:12;24.10;65.40
43884;DHT22;29544;52.018;5.810;2023-06-22T14:01:37;24.20;65.50
43884;DHT22;29544;52.018;5.810;2023-06-22T14:04:05;24.20;65.80
43884;DHT22;29544;52.018;5.810;2023-06-22T14:06:30;24.20;65.50
43884;DHT22;29544;52.018;5.810;2023-06-22T14:08:56;24.20;65.80
43884;DHT22;29544;52.018;5.810;2023-06-22T14:11:21;24.10;65.50
43884;DHT22;29544;52.018;5.810;2023-06-22T14:13:47;24.10;65.70
43884;DHT22;29544;52.018;5.810;2023-06-22T14:16:12;24.10;65.70
43884;DHT22;29544;52.018;5.810;2023-06-22T14:18:38;24.10;65.90
43884;DHT22;29544;52.018;5.810;2023-06-22T14:21:03;24.10;66.00
43884;DHT22;29544;52.018;5.810;2023-06-22T14:23:29;24.10;66.20
43884;DHT22;29544;52.018;5.810;2023-06-22T14:25:54;24.10;66.50
43884;DHT22;29544;52.018;5.810;2023-06-22T14:28:19;24.10;66.60
43884;DHT22;29544;52.018;5.810;2023-06-22T14:30:45;24.10;66.30
43884;DHT22;29544;52.018;5.810;2023-06-22T14:33:11;24.10;66.50
43884;DHT22;29544;52.018;5.810;2023-06-22T14:35:37;24.10;66.20
43884;DHT22;29544;52.018;5.810;2023-06-22T14:38:02;24.10;67.00
43884;DHT22;29544;52.018;5.810;2023-06-22T14:40:28;24.10;66.60
43884;DHT22;29544;52.018;5.810;2023-06-22T14:42:53;24.10;66.60
43884;DHT22;29544;52.018;5.810;2023-06-22T14:45:19;24.00;66.60
43884;DHT22;29544;52.018;5.810;2023-06-22T14:47:44;24.00;66.30
43884;DHT22;29544;52.018;5.810;2023-06-22T14:50:10;24.10;66.20
43884;DHT22;29544;52.018;5.810;2023-06-22T14:52:35;24.10;66.30
43884;DHT22;29544;52.018;5.810;2023-06-22T14:55:00;24.00;66.00
43884;DHT22;29544;52.018;5.810;2023-06-22T14:57:26;24.10;66.10
43884;DHT22;29544;52.018;5.810;2023-06-22T14:59:51;24.00;65.90
43884;DHT22;29544;52.018;5.810;2023-06-22T15:02:17;24.10;66.00
43884;DHT22;29544;52.018;5.810;2023-06-22T15:04:42;24.00;65.90
43884;DHT22;29544;52.018;5.810;2023-06-22T15:07:08;24.00;65.90
43884;DHT22;29544;52.018;5.810;2023-06-22T15:09:33;24.00;65.90
43884;DHT22;29544;52.018;5.810;2023-06-22T15:11:59;24.00;66.00
43884;DHT22;29544;52.018;5.810;2023-06-22T15:14:27;24.00;66.30
43884;DHT22;29544;52.018;5.810;2023-06-22T15:16:52;24.00;66.60
43884;DHT22;29544;52.018;5.810;2023-06-22T15:19:18;24.00;67.00
43884;DHT22;29544;52.018;5.810;2023-06-22T15:21:43;24.00;67.10
43884;DHT22;29544;52.018;5.810;2023-06-22T15:24:09;24.00;67.00
43884;DHT22;29544;52.018;5.810;2023-06-22T15:26:34;24.00;66.80
43884;DHT22;29544;52.018;5.810;2023-06-22T15:29:00;24.00;67.00